sensor_id;sensor_type;location;lat;lon;timestamp;P1;durP1;ratioP1;P2;durP2;ratioP2
17848;SDS011;9050;48.746;9.232;2023-03-23T00:01:12;0.40;;;0.40;;
17848;SDS011;9050;48.746;9.232;2023-03-23T00:03:44;0.43;;;0.43;;
17848;SDS011;9050;48.746;9.232;2023-03-23T00:06:12;0.50;;;0.50;;
17848;SDS011;9050;48.746;9.232;2023-03-23T00:08:42;0.40;;;0.40;;
17848;SDS011;9050;48.746;9.232;2023-03-23T00:11:12;0.60;;;0.60;;
17848;SDS011;9050;48.746;9.232;2023-03-23T00:13:41;0.40;;;0.40;;
17848;SDS011;9050;48.746;9.232;2023-03-23T00:16:08;0.43;;;0.43;;
17848;SDS011;9050;48.746;9.232;2023-03-23T00:18:42;0.50;;;0.50;;
17848;SDS011;9050;48.746;9.232;2023-03-23T00:21:10;0.40;;;0.40;;
17848;SDS011;9050;48.746;9.232;2023-03-23T00:23:37;0.60;;;0.60;;
17848;SDS011;9050;48.746;9.232;2023-03-23T00:26:04;0.50;;;0.50;;
17848;SDS011;9050;48.746;9.232;2023-03-23T00:28:33;0.50;;;0.50;;
17848;SDS011;9050;48.746;9.232;2023-03-23T00:31:00;0.53;;;0.53;;
17848;SDS011;9050;48.746;9.232;2023-03-23T00:33:29;0.53;;;0.53;;
17848;SDS011;9050;48.746;9.232;2023-03-23T00:35:58;0.60;;;0.60;;
17848;SDS011;9050;48.746;9.232;2023-03-23T00:38:25;0.60;;;0.60;;
17848;SDS011;9050;48.746;9.232;2023-03-23T00:40:52;0.70;;;0.70;;
17848;SDS011;9050;48.746;9.232;2023-03-23T00:43:22;0.53;;;0.53;;
17848;SDS011;9050;48.746;9.232;2023-03-23T00:45:51;0.60;;;0.60;;
17848;SDS011;9050;48.746;9.232;2023-03-23T00:48:18;0.70;;;0.70;;
17848;SDS011;9050;48.746;9.232;2023-03-23T00:50:45;0.53;;;0.53;;
17848;SDS011;9050;48.746;9.232;2023-03-23T00:53:12;0.70;;;0.70;;
17848;SDS011;9050;48.746;9.232;2023-03-23T00:55:40;0.60;;;0.60;;
17848;SDS011;9050;48.746;9.232;2023-03-23T00:58:08;0.80;;;0.80;;
17848;SDS011;9050;48.746;9.232;2023-03-23T01:00:35;0.63;;;0.63;;
17848;SDS011;9050;48.746;9.232;2023-03-23T01:03:03;0.70;;;0.70;;
17848;SDS011;9050;48.746;9.232;2023-03-23T01:05:33;0.50;;;0.50;;
17848;SDS011;9050;48.746;9.232;2023-03-23T01:08:00;0.50;;;0.50;;
17848;SDS011;9050;48.746;9.232;2023-03-23T01:10:27;0.60;;;0.60;;
17848;SDS011;9050;48.746;9.232;2023-03-23T01:12:57;0.73;;;0.73;;
17848;SDS011;9050;48.746;9.232;2023-03-23T01:15:25;0.87;;;0.87;;
17848;SDS011;9050;48.746;9.232;2023-03-23T01:17:53;0.70;;;0.70;;
17848;SDS011;9050;48.746;9.232;2023-03-23T01:20:21;0.60;;;0.60;;
17848;SDS011;9050;48.746;9.232;2023-03-23T01:22:49;0.60;;;0.60;;
17848;SDS011;9050;48.746;9.232;2023-03-23T01:25:18;0.60;;;0.60;;
17848;SDS011;9050;48.746;9.232;2023-03-23T01:27:45;0.70;;;0.70;;
17848;SDS011;9050;48.746;9.232;2023-03-23T01:30:12;0.70;;;0.70;;
17848;SDS011;9050;48.746;9.232;2023-03-23T01:32:39;0.73;;;0.73;;
17848;SDS011;9050;48.746;9.232;2023-03-23T01:35:06;0.60;;;0.60;;
17848;SDS011;9050;48.746;9.232;2023-03-23T01:37:36;0.60;;;0.60;;
17848;SDS011;9050;48.746;9.232;2023-03-23T01:40:03;0.60;;;0.60;;
17848;SDS011;9050;48.746;9.232;2023-03-23T01:42:31;0.53;;;0.53;;
17848;SDS011;9050;48.746;9.232;2023-03-23T01:47:55;0.50;;;0.50;;
17848;SDS011;9050;48.746;9.232;2023-03-23T01:50:32;0.60;;;0.60;;
17848;SDS011;9050;48.746;9.232;2023-03-23T01:53:06;0.50;;;0.50;;
17848;SDS011;9050;48.746;9.232;2023-03-23T01:55:35;0.50;;;0.50;;
17848;SDS011;9050;48.746;9.232;2023-03-23T01:58:04;0.67;;;0.67;;
17848;SDS011;9050;48.746;9.232;2023-03-23T02:00:32;0.53;;;0.53;;
17848;SDS011;9050;48.746;9.232;2023-03-23T02:03:00;0.50;;;0.50;;
17848;SDS011;9050;48.746;9.232;2023-03-23T02:05:28;0.60;;;0.60;;
17848;SDS011;9050;48.746;9.232;2023-03-23T02:07:59;0.53;;;0.53;;
17848;SDS011;9050;48.746;9.232;2023-03-23T02:10:30;0.60;;;0.60;;
17848;SDS011;9050;48.746;9.232;2023-03-23T02:12:58;0.53;;;0.53;;
17848;SDS011;9050;48.746;9.232;2023-03-23T02:15:28;0.50;;;0.50;;
17848;SDS011;9050;48.746;9.232;2023-03-23T02:18:02;0.70;;;0.70;;
17848;SDS011;9050;48.746;9.232;2023-03-23T02:20:38;0.60;;;0.60;;
17848;SDS011;9050;48.746;9.232;2023-03-23T02:26:29;0.40;;;0.40;;
17848;SDS011;9050;48.746;9.232;2023-03-23T02:31:58;0.50;;;0.50;;
17848;SDS011;9050;48.746;9.232;2023-03-23T02:34:40;0.50;;;0.50;;
17848;SDS011;9050;48.746;9.232;2023-03-23T02:37:09;0.60;;;0.60;;
17848;SDS011;9050;48.746;9.232;2023-03-23T02:39:41;0.50;;;0.50;;
17848;SDS011;9050;48.746;9.232;2023-03-23T02:42:13;0.60;;;0.60;;
17848;SDS011;9050;48.746;9.232;2023-03-23T02:44:43;0.60;;;0.60;;
17848;SDS011;9050;48.746;9.232;2023-03-23T02:47:12;0.50;;;0.50;;
17848;SDS011;9050;48.746;9.232;2023-03-23T02:49:45;0.50;;;0.50;;
17848;SDS011;9050;48.746;9.232;2023-03-23T02:52:15;0.60;;;0.60;;
17848;SDS011;9050;48.746;9.232;2023-03-23T02:54:46;0.63;;;0.63;;
17848;SDS011;9050;48.746;9.232;2023-03-23T02:57:14;0.60;;;0.60;;
17848;SDS011;9050;48.746;9.232;2023-03-23T02:59:42;0.60;;;0.60;;
17848;SDS011;9050;48.746;9.232;2023-03-23T03:02:09;0.60;;;0.60;;
17848;SDS011;9050;48.746;9.232;2023-03-23T03:04:39;0.60;;;0.60;;
17848;SDS011;9050;48.746;9.232;2023-03-23T03:09:56;0.60;;;0.60;;
17848;SDS011;9050;48.746;9.232;2023-03-23T03:12:28;0.63;;;0.63;;
17848;SDS011;9050;48.746;9.232;2023-03-23T03:15:03;0.63;;;0.63;;
17848;SDS011;9050;48.746;9.232;2023-03-23T03:17:42;0.60;;;0.60;;
17848;SDS011;9050;48.746;9.232;2023-03-23T03:20:12;0.50;;;0.50;;
17848;SDS011;9050;48.746;9.232;2023-03-23T03:22:43;0.63;;;0.63;;
17848;SDS011;9050;48.746;9.232;2023-03-23T03:25:11;0.70;;;0.70;;
17848;SDS011;9050;48.746;9.232;2023-03-23T03:27:41;0.60;;;0.60;;
17848;SDS011;9050;48.746;9.232;2023-03-23T03:30:14;0.60;;;0.60;;
17848;SDS011;9050;48.746;9.232;2023-03-23T03:32:47;0.60;;;0.60;;
17848;SDS011;9050;48.746;9.232;2023-03-23T03:35:18;0.50;;;0.50;;
17848;SDS011;9050;48.746;9.232;2023-03-23T03:37:47;0.70;;;0.70;;
17848;SDS011;9050;48.746;9.232;2023-03-23T03:40:16;0.60;;;0.60;;
17848;SDS011;9050;48.746;9.232;2023-03-23T03:42:45;0.70;;;0.70;;
17848;SDS011;9050;48.746;9.232;2023-03-23T03:45:14;0.70;;;0.70;;
17848;SDS011;9050;48.746;9.232;2023-03-23T03:47:42;0.50;;;0.50;;
17848;SDS011;9050;48.746;9.232;2023-03-23T03:50:09;0.50;;;0.50;;
17848;SDS011;9050;48.746;9.232;2023-03-23T03:52:36;0.60;;;0.60;;
17848;SDS011;9050;48.746;9.232;2023-03-23T03:55:07;0.57;;;0.57;;
17848;SDS011;9050;48.746;9.232;2023-03-23T03:57:36;0.70;;;0.70;;
17848;SDS011;9050;48.746;9.232;2023-03-23T04:00:05;0.60;;;0.60;;
17848;SDS011;9050;48.746;9.232;2023-03-23T04:02:40;0.60;;;0.60;;
17848;SDS011;9050;48.746;9.232;2023-03-23T04:05:08;0.60;;;0.60;;
17848;SDS011;9050;48.746;9.232;2023-03-23T04:07:36;0.50;;;0.50;;
17848;SDS011;9050;48.746;9.232;2023-03-23T04:10:05;0.60;;;0.60;;
17848;SDS011;9050;48.746;9.232;2023-03-23T04:12:34;0.50;;;0.50;;
17848;SDS011;9050;48.746;9.232;2023-03-23T04:15:02;0.50;;;0.50;;
17848;SDS011;9050;48.746;9.232;2023-03-23T04:17:29;0.57;;;0.57;;
17848;SDS011;9050;48.746;9.232;2023-03-23T04:19:56;0.60;;;0.60;;
17848;SDS011;9050;48.746;9.232;2023-03-23T04:22:25;0.50;;;0.50;;
17848;SDS011;9050;48.746;9.232;2023-03-23T04:24:55;0.73;;;0.73;;
17848;SDS011;9050;48.746;9.232;2023-03-23T04:27:27;0.60;;;0.60;;
17848;SDS011;9050;48.746;9.232;2023-03-23T04:29:54;0.50;;;0.50;;
17848;SDS011;9050;48.746;9.232;2023-03-23T04:32:23;0.53;;;0.53;;
17848;SDS011;9050;48.746;9.232;2023-03-23T04:34:53;0.60;;;0.60;;
17848;SDS011;9050;48.746;9.232;2023-03-23T04:37:21;0.60;;;0.60;;
17848;SDS011;9050;48.746;9.232;2023-03-23T04:39:50;0.60;;;0.60;;
17848;SDS011;9050;48.746;9.232;2023-03-23T04:42:27;0.50;;;0.50;;
17848;SDS011;9050;48.746;9.232;2023-03-23T04:44:55;0.50;;;0.50;;
17848;SDS011;9050;48.746;9.232;2023-03-23T04:47:22;0.50;;;0.50;;
17848;SDS011;9050;48.746;9.232;2023-03-23T04:49:50;0.60;;;0.60;;
17848;SDS011;9050;48.746;9.232;2023-03-23T04:52:17;0.60;;;0.60;;
17848;SDS011;9050;48.746;9.232;2023-03-23T04:54:45;0.60;;;0.60;;
17848;SDS011;9050;48.746;9.232;2023-03-23T04:57:12;0.40;;;0.40;;
17848;SDS011;9050;48.746;9.232;2023-03-23T04:59:41;0.50;;;0.50;;
17848;SDS011;9050;48.746;9.232;2023-03-23T05:02:08;0.50;;;0.50;;
17848;SDS011;9050;48.746;9.232;2023-03-23T05:04:35;0.40;;;0.40;;
17848;SDS011;9050;48.746;9.232;2023-03-23T05:07:03;0.50;;;0.50;;
17848;SDS011;9050;48.746;9.232;2023-03-23T05:09:29;0.50;;;0.50;;
17848;SDS011;9050;48.746;9.232;2023-03-23T05:11:56;0.53;;;0.53;;
17848;SDS011;9050;48.746;9.232;2023-03-23T05:14:24;0.40;;;0.40;;
17848;SDS011;9050;48.746;9.232;2023-03-23T05:16:53;0.40;;;0.40;;
17848;SDS011;9050;48.746;9.232;2023-03-23T05:19:21;0.40;;;0.40;;
17848;SDS011;9050;48.746;9.232;2023-03-23T05:21:47;0.40;;;0.40;;
17848;SDS011;9050;48.746;9.232;2023-03-23T05:24:14;0.43;;;0.43;;
17848;SDS011;9050;48.746;9.232;2023-03-23T05:26:42;0.40;;;0.40;;
17848;SDS011;9050;48.746;9.232;2023-03-23T05:29:13;0.50;;;0.50;;
17848;SDS011;9050;48.746;9.232;2023-03-23T05:31:40;0.47;;;0.47;;
17848;SDS011;9050;48.746;9.232;2023-03-23T05:34:09;0.60;;;0.60;;
17848;SDS011;9050;48.746;9.232;2023-03-23T05:36:37;0.50;;;0.50;;
17848;SDS011;9050;48.746;9.232;2023-03-23T05:39:03;0.50;;;0.50;;
17848;SDS011;9050;48.746;9.232;2023-03-23T05:41:30;0.50;;;0.50;;
17848;SDS011;9050;48.746;9.232;2023-03-23T05:43:58;0.60;;;0.60;;
17848;SDS011;9050;48.746;9.232;2023-03-23T05:46:25;0.40;;;0.40;;
17848;SDS011;9050;48.746;9.232;2023-03-23T05:48:51;0.60;;;0.60;;
17848;SDS011;9050;48.746;9.232;2023-03-23T05:51:20;0.40;;;0.40;;
17848;SDS011;9050;48.746;9.232;2023-03-23T05:53:47;0.40;;;0.40;;
17848;SDS011;9050;48.746;9.232;2023-03-23T05:56:14;0.40;;;0.40;;
17848;SDS011;9050;48.746;9.232;2023-03-23T05:58:41;0.53;;;0.53;;
17848;SDS011;9050;48.746;9.232;2023-03-23T06:01:07;0.70;;;0.70;;
17848;SDS011;9050;48.746;9.232;2023-03-23T06:03:37;0.40;;;0.40;;
17848;SDS011;9050;48.746;9.232;2023-03-23T06:06:04;0.50;;;0.50;;
17848;SDS011;9050;48.746;9.232;2023-03-23T06:08:34;0.40;;;0.40;;
17848;SDS011;9050;48.746;9.232;2023-03-23T06:11:02;0.40;;;0.40;;
17848;SDS011;9050;48.746;9.232;2023-03-23T06:13:29;0.50;;;0.50;;
17848;SDS011;9050;48.746;9.232;2023-03-23T06:15:56;0.50;;;0.50;;
17848;SDS011;9050;48.746;9.232;2023-03-23T06:18:23;0.30;;;0.30;;
17848;SDS011;9050;48.746;9.232;2023-03-23T06:20:50;0.50;;;0.50;;
17848;SDS011;9050;48.746;9.232;2023-03-23T06:23:17;0.40;;;0.40;;
17848;SDS011;9050;48.746;9.232;2023-03-23T06:25:45;0.57;;;0.57;;
17848;SDS011;9050;48.746;9.232;2023-03-23T06:28:12;0.50;;;0.50;;
17848;SDS011;9050;48.746;9.232;2023-03-23T06:30:40;0.40;;;0.40;;
17848;SDS011;9050;48.746;9.232;2023-03-23T06:33:07;0.60;;;0.60;;
17848;SDS011;9050;48.746;9.232;2023-03-23T06:35:34;0.53;;;0.53;;
17848;SDS011;9050;48.746;9.232;2023-03-23T06:38:01;0.60;;;0.60;;
17848;SDS011;9050;48.746;9.232;2023-03-23T06:40:28;0.50;;;0.50;;
17848;SDS011;9050;48.746;9.232;2023-03-23T06:42:57;0.50;;;0.50;;
17848;SDS011;9050;48.746;9.232;2023-03-23T06:45:25;0.40;;;0.40;;
17848;SDS011;9050;48.746;9.232;2023-03-23T06:47:51;0.40;;;0.40;;
17848;SDS011;9050;48.746;9.232;2023-03-23T06:50:18;0.40;;;0.40;;
17848;SDS011;9050;48.746;9.232;2023-03-23T06:52:45;0.40;;;0.40;;
17848;SDS011;9050;48.746;9.232;2023-03-23T06:55:13;0.40;;;0.40;;
17848;SDS011;9050;48.746;9.232;2023-03-23T06:57:40;0.50;;;0.50;;
17848;SDS011;9050;48.746;9.232;2023-03-23T07:00:10;0.40;;;0.40;;
17848;SDS011;9050;48.746;9.232;2023-03-23T07:02:38;0.40;;;0.40;;
17848;SDS011;9050;48.746;9.232;2023-03-23T07:05:06;0.30;;;0.30;;
17848;SDS011;9050;48.746;9.232;2023-03-23T07:07:34;0.40;;;0.40;;
17848;SDS011;9050;48.746;9.232;2023-03-23T07:10:01;0.40;;;0.40;;
17848;SDS011;9050;48.746;9.232;2023-03-23T07:12:28;0.30;;;0.30;;
17848;SDS011;9050;48.746;9.232;2023-03-23T07:14:55;0.40;;;0.40;;
17848;SDS011;9050;48.746;9.232;2023-03-23T07:17:23;0.30;;;0.30;;
17848;SDS011;9050;48.746;9.232;2023-03-23T07:19:50;0.40;;;0.40;;
17848;SDS011;9050;48.746;9.232;2023-03-23T07:22:17;0.30;;;0.30;;
17848;SDS011;9050;48.746;9.232;2023-03-23T07:24:44;0.40;;;0.40;;
17848;SDS011;9050;48.746;9.232;2023-03-23T07:27:11;0.30;;;0.30;;
17848;SDS011;9050;48.746;9.232;2023-03-23T07:29:38;0.47;;;0.47;;
17848;SDS011;9050;48.746;9.232;2023-03-23T07:32:06;0.40;;;0.40;;
17848;SDS011;9050;48.746;9.232;2023-03-23T07:34:37;0.40;;;0.40;;
17848;SDS011;9050;48.746;9.232;2023-03-23T07:37:04;0.40;;;0.40;;
17848;SDS011;9050;48.746;9.232;2023-03-23T07:39:31;0.30;;;0.30;;
17848;SDS011;9050;48.746;9.232;2023-03-23T07:41:59;0.30;;;0.30;;
17848;SDS011;9050;48.746;9.232;2023-03-23T07:44:26;0.47;;;0.47;;
17848;SDS011;9050;48.746;9.232;2023-03-23T07:46:53;0.40;;;0.40;;
17848;SDS011;9050;48.746;9.232;2023-03-23T07:49:20;0.30;;;0.30;;
17848;SDS011;9050;48.746;9.232;2023-03-23T07:51:48;0.30;;;0.30;;
17848;SDS011;9050;48.746;9.232;2023-03-23T07:54:15;0.30;;;0.30;;
17848;SDS011;9050;48.746;9.232;2023-03-23T07:56:42;0.30;;;0.30;;
17848;SDS011;9050;48.746;9.232;2023-03-23T07:59:10;0.40;;;0.40;;
17848;SDS011;9050;48.746;9.232;2023-03-23T08:01:37;0.40;;;0.40;;
17848;SDS011;9050;48.746;9.232;2023-03-23T08:04:05;0.30;;;0.30;;
17848;SDS011;9050;48.746;9.232;2023-03-23T08:06:33;0.20;;;0.20;;
17848;SDS011;9050;48.746;9.232;2023-03-23T08:09:02;0.30;;;0.30;;
17848;SDS011;9050;48.746;9.232;2023-03-23T08:11:32;0.20;;;0.20;;
17848;SDS011;9050;48.746;9.232;2023-03-23T08:13:59;0.30;;;0.30;;
17848;SDS011;9050;48.746;9.232;2023-03-23T08:16:26;0.30;;;0.30;;
17848;SDS011;9050;48.746;9.232;2023-03-23T08:18:53;0.20;;;0.20;;
17848;SDS011;9050;48.746;9.232;2023-03-23T08:21:20;0.30;;;0.30;;
17848;SDS011;9050;48.746;9.232;2023-03-23T08:23:47;0.30;;;0.30;;
17848;SDS011;9050;48.746;9.232;2023-03-23T08:26:15;0.30;;;0.30;;
17848;SDS011;9050;48.746;9.232;2023-03-23T08:28:42;0.22;;;0.22;;
17848;SDS011;9050;48.746;9.232;2023-03-23T08:31:10;0.30;;;0.30;;
17848;SDS011;9050;48.746;9.232;2023-03-23T08:33:38;0.30;;;0.30;;
17848;SDS011;9050;48.746;9.232;2023-03-23T08:36:07;0.20;;;0.20;;
17848;SDS011;9050;48.746;9.232;2023-03-23T08:38:34;0.30;;;0.30;;
17848;SDS011;9050;48.746;9.232;2023-03-23T08:41:01;0.20;;;0.20;;
17848;SDS011;9050;48.746;9.232;2023-03-23T08:43:32;0.30;;;0.30;;
17848;SDS011;9050;48.746;9.232;2023-03-23T08:45:59;0.20;;;0.20;;
17848;SDS011;9050;48.746;9.232;2023-03-23T08:48:26;0.30;;;0.30;;
17848;SDS011;9050;48.746;9.232;2023-03-23T08:50:54;0.30;;;0.30;;
17848;SDS011;9050;48.746;9.232;2023-03-23T08:53:20;0.30;;;0.30;;
17848;SDS011;9050;48.746;9.232;2023-03-23T08:55:48;0.30;;;0.30;;
17848;SDS011;9050;48.746;9.232;2023-03-23T08:58:15;0.30;;;0.30;;
17848;SDS011;9050;48.746;9.232;2023-03-23T09:00:44;0.30;;;0.30;;
17848;SDS011;9050;48.746;9.232;2023-03-23T09:03:10;0.40;;;0.40;;
17848;SDS011;9050;48.746;9.232;2023-03-23T09:05:38;0.30;;;0.30;;
17848;SDS011;9050;48.746;9.232;2023-03-23T09:08:10;0.30;;;0.30;;
17848;SDS011;9050;48.746;9.232;2023-03-23T09:10:38;0.30;;;0.30;;
17848;SDS011;9050;48.746;9.232;2023-03-23T09:13:05;0.30;;;0.30;;
17848;SDS011;9050;48.746;9.232;2023-03-23T09:15:32;0.20;;;0.20;;
17848;SDS011;9050;48.746;9.232;2023-03-23T09:18:01;0.25;;;0.25;;
17848;SDS011;9050;48.746;9.232;2023-03-23T09:20:29;0.30;;;0.30;;
17848;SDS011;9050;48.746;9.232;2023-03-23T09:22:56;0.20;;;0.20;;
17848;SDS011;9050;48.746;9.232;2023-03-23T09:25:24;0.30;;;0.30;;
17848;SDS011;9050;48.746;9.232;2023-03-23T09:27:52;0.22;;;0.22;;
17848;SDS011;9050;48.746;9.232;2023-03-23T09:30:22;0.20;;;0.20;;
17848;SDS011;9050;48.746;9.232;2023-03-23T09:32:51;0.25;;;0.25;;
17848;SDS011;9050;48.746;9.232;2023-03-23T09:35:20;0.20;;;0.20;;
17848;SDS011;9050;48.746;9.232;2023-03-23T09:37:48;0.28;;;0.28;;
17848;SDS011;9050;48.746;9.232;2023-03-23T09:40:16;0.30;;;0.30;;
17848;SDS011;9050;48.746;9.232;2023-03-23T09:42:52;0.20;;;0.20;;
17848;SDS011;9050;48.746;9.232;2023-03-23T09:45:31;0.30;;;0.30;;
17848;SDS011;9050;48.746;9.232;2023-03-23T09:48:08;0.30;;;0.30;;
17848;SDS011;9050;48.746;9.232;2023-03-23T09:50:55;0.30;;;0.30;;
17848;SDS011;9050;48.746;9.232;2023-03-23T09:53:27;0.38;;;0.38;;
17848;SDS011;9050;48.746;9.232;2023-03-23T09:56:00;0.32;;;0.32;;
17848;SDS011;9050;48.746;9.232;2023-03-23T09:58:29;0.30;;;0.30;;
17848;SDS011;9050;48.746;9.232;2023-03-23T10:01:02;0.20;;;0.20;;
17848;SDS011;9050;48.746;9.232;2023-03-23T10:03:34;0.30;;;0.30;;
17848;SDS011;9050;48.746;9.232;2023-03-23T10:06:08;0.30;;;0.30;;
17848;SDS011;9050;48.746;9.232;2023-03-23T10:08:38;0.30;;;0.30;;
17848;SDS011;9050;48.746;9.232;2023-03-23T10:11:12;0.30;;;0.30;;
17848;SDS011;9050;48.746;9.232;2023-03-23T10:13:53;0.20;;;0.20;;
17848;SDS011;9050;48.746;9.232;2023-03-23T10:16:32;0.20;;;0.20;;
17848;SDS011;9050;48.746;9.232;2023-03-23T10:19:09;0.20;;;0.20;;
17848;SDS011;9050;48.746;9.232;2023-03-23T10:21:40;0.20;;;0.20;;
17848;SDS011;9050;48.746;9.232;2023-03-23T10:24:13;0.30;;;0.30;;
17848;SDS011;9050;48.746;9.232;2023-03-23T10:26:45;0.20;;;0.20;;
17848;SDS011;9050;48.746;9.232;2023-03-23T10:29:19;0.20;;;0.20;;
17848;SDS011;9050;48.746;9.232;2023-03-23T10:31:49;0.30;;;0.30;;
17848;SDS011;9050;48.746;9.232;2023-03-23T10:34:21;0.20;;;0.20;;
17848;SDS011;9050;48.746;9.232;2023-03-23T10:36:59;0.30;;;0.30;;
17848;SDS011;9050;48.746;9.232;2023-03-23T10:39:31;0.20;;;0.20;;
17848;SDS011;9050;48.746;9.232;2023-03-23T10:42:05;0.20;;;0.20;;
17848;SDS011;9050;48.746;9.232;2023-03-23T10:44:33;0.20;;;0.20;;
17848;SDS011;9050;48.746;9.232;2023-03-23T10:47:00;0.30;;;0.30;;
17848;SDS011;9050;48.746;9.232;2023-03-23T10:49:30;0.30;;;0.30;;
17848;SDS011;9050;48.746;9.232;2023-03-23T10:52:03;0.20;;;0.20;;
17848;SDS011;9050;48.746;9.232;2023-03-23T10:54:36;0.20;;;0.20;;
17848;SDS011;9050;48.746;9.232;2023-03-23T10:57:12;0.20;;;0.20;;
17848;SDS011;9050;48.746;9.232;2023-03-23T10:59:46;0.30;;;0.30;;
17848;SDS011;9050;48.746;9.232;2023-03-23T11:02:14;0.30;;;0.30;;
17848;SDS011;9050;48.746;9.232;2023-03-23T11:04:53;0.30;;;0.30;;
17848;SDS011;9050;48.746;9.232;2023-03-23T11:07:30;0.20;;;0.20;;
17848;SDS011;9050;48.746;9.232;2023-03-23T11:10:04;0.20;;;0.20;;
17848;SDS011;9050;48.746;9.232;2023-03-23T11:12:36;0.20;;;0.20;;
17848;SDS011;9050;48.746;9.232;2023-03-23T11:15:03;0.20;;;0.20;;
17848;SDS011;9050;48.746;9.232;2023-03-23T11:17:42;0.20;;;0.20;;
17848;SDS011;9050;48.746;9.232;2023-03-23T11:20:10;0.20;;;0.20;;
17848;SDS011;9050;48.746;9.232;2023-03-23T11:22:39;0.20;;;0.20;;
17848;SDS011;9050;48.746;9.232;2023-03-23T11:25:12;0.20;;;0.20;;
17848;SDS011;9050;48.746;9.232;2023-03-23T11:27:41;0.20;;;0.20;;
17848;SDS011;9050;48.746;9.232;2023-03-23T11:30:09;0.25;;;0.25;;
17848;SDS011;9050;48.746;9.232;2023-03-23T11:32:46;0.20;;;0.20;;
17848;SDS011;9050;48.746;9.232;2023-03-23T11:35:15;0.30;;;0.30;;
17848;SDS011;9050;48.746;9.232;2023-03-23T11:37:47;0.20;;;0.20;;
17848;SDS011;9050;48.746;9.232;2023-03-23T11:40:18;0.32;;;0.32;;
17848;SDS011;9050;48.746;9.232;2023-03-23T11:42:48;0.20;;;0.20;;
17848;SDS011;9050;48.746;9.232;2023-03-23T11:45:31;0.25;;;0.25;;
17848;SDS011;9050;48.746;9.232;2023-03-23T11:48:03;0.20;;;0.20;;
17848;SDS011;9050;48.746;9.232;2023-03-23T11:50:44;0.20;;;0.20;;
17848;SDS011;9050;48.746;9.232;2023-03-23T11:53:21;0.20;;;0.20;;
17848;SDS011;9050;48.746;9.232;2023-03-23T11:55:55;0.22;;;0.22;;
17848;SDS011;9050;48.746;9.232;2023-03-23T11:58:29;0.20;;;0.20;;
17848;SDS011;9050;48.746;9.232;2023-03-23T12:00:58;0.20;;;0.20;;
17848;SDS011;9050;48.746;9.232;2023-03-23T12:03:38;0.20;;;0.20;;
17848;SDS011;9050;48.746;9.232;2023-03-23T12:06:23;0.30;;;0.30;;
17848;SDS011;9050;48.746;9.232;2023-03-23T12:09:02;0.20;;;0.20;;
17848;SDS011;9050;48.746;9.232;2023-03-23T12:11:50;0.20;;;0.20;;
17848;SDS011;9050;48.746;9.232;2023-03-23T12:14:25;0.25;;;0.25;;
17848;SDS011;9050;48.746;9.232;2023-03-23T12:17:03;0.30;;;0.30;;
17848;SDS011;9050;48.746;9.232;2023-03-23T12:19:42;0.20;;;0.20;;
17848;SDS011;9050;48.746;9.232;2023-03-23T12:22:21;0.20;;;0.20;;
17848;SDS011;9050;48.746;9.232;2023-03-23T12:25:05;0.20;;;0.20;;
17848;SDS011;9050;48.746;9.232;2023-03-23T12:27:46;0.20;;;0.20;;
17848;SDS011;9050;48.746;9.232;2023-03-23T12:30:24;0.30;;;0.30;;
17848;SDS011;9050;48.746;9.232;2023-03-23T12:33:04;0.20;;;0.20;;
17848;SDS011;9050;48.746;9.232;2023-03-23T12:35:42;0.20;;;0.20;;
17848;SDS011;9050;48.746;9.232;2023-03-23T12:38:32;0.30;;;0.30;;
17848;SDS011;9050;48.746;9.232;2023-03-23T12:41:15;0.30;;;0.30;;
17848;SDS011;9050;48.746;9.232;2023-03-23T12:43:51;0.22;;;0.22;;
17848;SDS011;9050;48.746;9.232;2023-03-23T12:49:12;0.20;;;0.20;;
17848;SDS011;9050;48.746;9.232;2023-03-23T12:51:43;0.30;;;0.30;;
17848;SDS011;9050;48.746;9.232;2023-03-23T12:54:15;0.20;;;0.20;;
17848;SDS011;9050;48.746;9.232;2023-03-23T12:56:51;0.20;;;0.20;;
17848;SDS011;9050;48.746;9.232;2023-03-23T12:59:24;0.20;;;0.20;;
17848;SDS011;9050;48.746;9.232;2023-03-23T13:01:57;0.20;;;0.20;;
17848;SDS011;9050;48.746;9.232;2023-03-23T13:04:30;0.20;;;0.20;;
17848;SDS011;9050;48.746;9.232;2023-03-23T13:07:02;0.20;;;0.20;;
17848;SDS011;9050;48.746;9.232;2023-03-23T13:09:36;0.20;;;0.20;;
17848;SDS011;9050;48.746;9.232;2023-03-23T13:12:15;0.20;;;0.20;;
17848;SDS011;9050;48.746;9.232;2023-03-23T13:14:44;0.20;;;0.20;;
17848;SDS011;9050;48.746;9.232;2023-03-23T13:17:21;0.10;;;0.10;;
17848;SDS011;9050;48.746;9.232;2023-03-23T13:19:59;0.10;;;0.10;;
17848;SDS011;9050;48.746;9.232;2023-03-23T13:22:43;0.20;;;0.20;;
17848;SDS011;9050;48.746;9.232;2023-03-23T13:25:17;0.30;;;0.30;;
17848;SDS011;9050;48.746;9.232;2023-03-23T13:27:57;0.20;;;0.20;;
17848;SDS011;9050;48.746;9.232;2023-03-23T13:30:25;0.20;;;0.20;;
17848;SDS011;9050;48.746;9.232;2023-03-23T13:33:00;0.20;;;0.20;;
17848;SDS011;9050;48.746;9.232;2023-03-23T13:35:33;0.20;;;0.20;;
17848;SDS011;9050;48.746;9.232;2023-03-23T13:38:10;0.20;;;0.20;;
17848;SDS011;9050;48.746;9.232;2023-03-23T13:40:42;0.20;;;0.20;;
17848;SDS011;9050;48.746;9.232;2023-03-23T13:43:12;0.20;;;0.20;;
17848;SDS011;9050;48.746;9.232;2023-03-23T13:45:43;0.20;;;0.20;;
17848;SDS011;9050;48.746;9.232;2023-03-23T13:48:19;0.20;;;0.20;;
17848;SDS011;9050;48.746;9.232;2023-03-23T13:50:52;0.20;;;0.20;;
17848;SDS011;9050;48.746;9.232;2023-03-23T13:53:26;0.20;;;0.20;;
17848;SDS011;9050;48.746;9.232;2023-03-23T13:56:05;0.30;;;0.30;;
17848;SDS011;9050;48.746;9.232;2023-03-23T13:58:45;0.20;;;0.20;;
17848;SDS011;9050;48.746;9.232;2023-03-23T14:01:15;0.30;;;0.30;;
17848;SDS011;9050;48.746;9.232;2023-03-23T14:03:45;0.20;;;0.20;;
17848;SDS011;9050;48.746;9.232;2023-03-23T14:06:15;0.30;;;0.30;;
17848;SDS011;9050;48.746;9.232;2023-03-23T14:08:45;0.30;;;0.30;;
17848;SDS011;9050;48.746;9.232;2023-03-23T14:11:17;0.20;;;0.20;;
17848;SDS011;9050;48.746;9.232;2023-03-23T14:13:58;0.30;;;0.30;;
17848;SDS011;9050;48.746;9.232;2023-03-23T14:16:31;0.22;;;0.22;;
17848;SDS011;9050;48.746;9.232;2023-03-23T14:19:03;0.20;;;0.20;;
17848;SDS011;9050;48.746;9.232;2023-03-23T14:21:41;0.40;;;0.40;;
17848;SDS011;9050;48.746;9.232;2023-03-23T14:24:15;0.30;;;0.30;;
17848;SDS011;9050;48.746;9.232;2023-03-23T14:26:44;0.20;;;0.20;;
17848;SDS011;9050;48.746;9.232;2023-03-23T14:29:13;0.22;;;0.22;;
17848;SDS011;9050;48.746;9.232;2023-03-23T14:31:40;0.30;;;0.30;;
17848;SDS011;9050;48.746;9.232;2023-03-23T14:34:11;0.30;;;0.30;;
17848;SDS011;9050;48.746;9.232;2023-03-23T14:36:40;0.30;;;0.30;;
17848;SDS011;9050;48.746;9.232;2023-03-23T14:39:12;0.30;;;0.30;;
17848;SDS011;9050;48.746;9.232;2023-03-23T14:41:43;0.30;;;0.30;;
17848;SDS011;9050;48.746;9.232;2023-03-23T14:44:12;0.30;;;0.30;;
17848;SDS011;9050;48.746;9.232;2023-03-23T14:46:42;0.20;;;0.20;;
17848;SDS011;9050;48.746;9.232;2023-03-23T14:49:11;0.20;;;0.20;;
17848;SDS011;9050;48.746;9.232;2023-03-23T14:51:46;0.20;;;0.20;;
17848;SDS011;9050;48.746;9.232;2023-03-23T14:54:14;0.30;;;0.30;;
17848;SDS011;9050;48.746;9.232;2023-03-23T14:56:41;0.20;;;0.20;;
17848;SDS011;9050;48.746;9.232;2023-03-23T14:59:09;0.20;;;0.20;;
17848;SDS011;9050;48.746;9.232;2023-03-23T15:01:38;0.22;;;0.22;;
17848;SDS011;9050;48.746;9.232;2023-03-23T15:04:09;0.30;;;0.30;;
17848;SDS011;9050;48.746;9.232;2023-03-23T15:06:39;0.30;;;0.30;;
17848;SDS011;9050;48.746;9.232;2023-03-23T15:09:10;0.20;;;0.20;;
17848;SDS011;9050;48.746;9.232;2023-03-23T15:11:39;0.20;;;0.20;;
17848;SDS011;9050;48.746;9.232;2023-03-23T15:14:13;0.30;;;0.30;;
17848;SDS011;9050;48.746;9.232;2023-03-23T15:16:46;0.30;;;0.30;;
17848;SDS011;9050;48.746;9.232;2023-03-23T15:19:16;0.20;;;0.20;;
17848;SDS011;9050;48.746;9.232;2023-03-23T15:21:48;0.30;;;0.30;;
17848;SDS011;9050;48.746;9.232;2023-03-23T15:24:20;0.38;;;0.38;;
17848;SDS011;9050;48.746;9.232;2023-03-23T15:26:51;0.30;;;0.30;;
17848;SDS011;9050;48.746;9.232;2023-03-23T15:29:19;0.30;;;0.30;;
17848;SDS011;9050;48.746;9.232;2023-03-23T15:31:50;0.30;;;0.30;;
17848;SDS011;9050;48.746;9.232;2023-03-23T15:34:29;0.30;;;0.30;;